sensor_id;sensor_type;location;lat;lon;timestamp;P1;durP1;ratioP1;P2;durP2;ratioP2
11604;SDS011;5858;43.076;25.626;2024-02-15T00:04:54;7.77;;;6.30;;
11604;SDS011;5858;43.076;25.626;2024-02-15T06:19:28;24.40;;;17.80;;
11604;SDS011;5858;43.076;25.626;2024-02-15T06:22:06;19.47;;;14.53;;
11604;SDS011;5858;43.076;25.626;2024-02-15T06:28:33;18.13;;;14.30;;
11604;SDS011;5858;43.076;25.626;2024-02-15T06:39:23;28.83;;;24.80;;
11604;SDS011;5858;43.076;25.626;2024-02-15T06:45:41;22.73;;;17.80;;
11604;SDS011;5858;43.076;25.626;2024-02-15T07:10:55;20.63;;;15.20;;
11604;SDS011;5858;43.076;25.626;2024-02-15T07:44:14;8.50;;;7.63;;
11604;SDS011;5858;43.076;25.626;2024-02-15T07:50:16;10.43;;;6.53;;
11604;SDS011;5858;43.076;25.626;2024-02-15T07:53:03;9.33;;;6.70;;
11604;SDS011;5858;43.076;25.626;2024-02-15T07:59:08;12.40;;;7.03;;
11604;SDS011;5858;43.076;25.626;2024-02-15T08:01:41;8.50;;;5.37;;
11604;SDS011;5858;43.076;25.626;2024-02-15T08:04:18;9.23;;;5.60;;
11604;SDS011;5858;43.076;25.626;2024-02-15T08:06:46;9.70;;;6.20;;
11604;SDS011;5858;43.076;25.626;2024-02-15T08:09:15;6.90;;;5.97;;
11604;SDS011;5858;43.076;25.626;2024-02-15T08:11:45;10.73;;;5.47;;
11604;SDS011;5858;43.076;25.626;2024-02-15T08:14:13;8.70;;;5.87;;
11604;SDS011;5858;43.076;25.626;2024-02-15T08:16:40;11.13;;;5.90;;
11604;SDS011;5858;43.076;25.626;2024-02-15T08:19:13;6.87;;;5.67;;
11604;SDS011;5858;43.076;25.626;2024-02-15T08:21:49;12.70;;;6.00;;
11604;SDS011;5858;43.076;25.626;2024-02-15T08:24:17;11.97;;;6.57;;
11604;SDS011;5858;43.076;25.626;2024-02-15T08:26:44;10.70;;;5.70;;
11604;SDS011;5858;43.076;25.626;2024-02-15T08:29:14;11.37;;;7.37;;
11604;SDS011;5858;43.076;25.626;2024-02-15T08:31:48;13.57;;;5.80;;
11604;SDS011;5858;43.076;25.626;2024-02-15T08:34:31;10.67;;;6.30;;
11604;SDS011;5858;43.076;25.626;2024-02-15T08:36:58;19.00;;;6.50;;
11604;SDS011;5858;43.076;25.626;2024-02-15T08:39:26;8.40;;;5.90;;
11604;SDS011;5858;43.076;25.626;2024-02-15T08:42:02;7.77;;;6.07;;
11604;SDS011;5858;43.076;25.626;2024-02-15T08:44:33;8.73;;;4.67;;
11604;SDS011;5858;43.076;25.626;2024-02-15T08:47:00;10.43;;;5.30;;
11604;SDS011;5858;43.076;25.626;2024-02-15T08:49:29;6.97;;;6.03;;
11604;SDS011;5858;43.076;25.626;2024-02-15T08:52:08;7.97;;;5.87;;
11604;SDS011;5858;43.076;25.626;2024-02-15T08:54:43;11.40;;;6.07;;
11604;SDS011;5858;43.076;25.626;2024-02-15T08:57:15;10.50;;;5.77;;
11604;SDS011;5858;43.076;25.626;2024-02-15T08:59:49;10.90;;;5.97;;
11604;SDS011;5858;43.076;25.626;2024-02-15T09:02:19;8.03;;;5.90;;
11604;SDS011;5858;43.076;25.626;2024-02-15T09:04:50;8.80;;;5.47;;
11604;SDS011;5858;43.076;25.626;2024-02-15T09:07:17;9.37;;;5.80;;
11604;SDS011;5858;43.076;25.626;2024-02-15T09:12:40;9.30;;;5.83;;
11604;SDS011;5858;43.076;25.626;2024-02-15T09:15:16;9.03;;;5.40;;
11604;SDS011;5858;43.076;25.626;2024-02-15T09:17:43;12.93;;;5.80;;
11604;SDS011;5858;43.076;25.626;2024-02-15T09:20:11;7.40;;;5.83;;
11604;SDS011;5858;43.076;25.626;2024-02-15T09:22:41;8.67;;;5.17;;
11604;SDS011;5858;43.076;25.626;2024-02-15T09:25:13;8.00;;;5.50;;
11604;SDS011;5858;43.076;25.626;2024-02-15T09:27:53;9.93;;;5.13;;
11604;SDS011;5858;43.076;25.626;2024-02-15T09:30:25;13.07;;;6.07;;
11604;SDS011;5858;43.076;25.626;2024-02-15T09:32:55;5.40;;;4.90;;
11604;SDS011;5858;43.076;25.626;2024-02-15T09:35:22;10.40;;;5.20;;
11604;SDS011;5858;43.076;25.626;2024-02-15T09:37:52;6.27;;;5.60;;
11604;SDS011;5858;43.076;25.626;2024-02-15T09:40:26;7.00;;;5.40;;
11604;SDS011;5858;43.076;25.626;2024-02-15T09:43:05;8.20;;;5.90;;
11604;SDS011;5858;43.076;25.626;2024-02-15T09:45:37;8.90;;;5.73;;
11604;SDS011;5858;43.076;25.626;2024-02-15T09:48:23;8.63;;;5.90;;
11604;SDS011;5858;43.076;25.626;2024-02-15T09:50:52;7.60;;;5.27;;
11604;SDS011;5858;43.076;25.626;2024-02-15T09:53:22;9.97;;;5.93;;
11604;SDS011;5858;43.076;25.626;2024-02-15T09:55:59;7.17;;;5.43;;
11604;SDS011;5858;43.076;25.626;2024-02-15T09:58:45;8.37;;;5.80;;
11604;SDS011;5858;43.076;25.626;2024-02-15T10:01:25;7.30;;;5.47;;
11604;SDS011;5858;43.076;25.626;2024-02-15T10:04:07;6.57;;;5.07;;
11604;SDS011;5858;43.076;25.626;2024-02-15T10:06:34;5.93;;;5.00;;
11604;SDS011;5858;43.076;25.626;2024-02-15T10:11:59;8.20;;;5.37;;
11604;SDS011;5858;43.076;25.626;2024-02-15T10:14:32;6.67;;;5.53;;
11604;SDS011;5858;43.076;25.626;2024-02-15T10:17:08;8.33;;;5.57;;
11604;SDS011;5858;43.076;25.626;2024-02-15T10:19:38;11.00;;;6.13;;
11604;SDS011;5858;43.076;25.626;2024-02-15T10:22:28;11.00;;;5.60;;
11604;SDS011;5858;43.076;25.626;2024-02-15T10:25:29;8.43;;;6.47;;
11604;SDS011;5858;43.076;25.626;2024-02-15T10:28:20;8.53;;;6.20;;
11604;SDS011;5858;43.076;25.626;2024-02-15T10:34:21;8.03;;;6.57;;
11604;SDS011;5858;43.076;25.626;2024-02-15T10:37:10;6.97;;;5.87;;
11604;SDS011;5858;43.076;25.626;2024-02-15T10:39:38;7.53;;;5.63;;
11604;SDS011;5858;43.076;25.626;2024-02-15T10:42:06;8.50;;;6.17;;
11604;SDS011;5858;43.076;25.626;2024-02-15T10:44:36;10.13;;;6.20;;
11604;SDS011;5858;43.076;25.626;2024-02-15T10:47:08;9.43;;;5.93;;
11604;SDS011;5858;43.076;25.626;2024-02-15T10:49:51;7.83;;;6.13;;
11604;SDS011;5858;43.076;25.626;2024-02-15T10:52:18;8.33;;;6.43;;
11604;SDS011;5858;43.076;25.626;2024-02-15T10:54:52;7.47;;;6.27;;
11604;SDS011;5858;43.076;25.626;2024-02-15T10:57:26;9.73;;;6.83;;
11604;SDS011;5858;43.076;25.626;2024-02-15T11:00:00;9.40;;;6.03;;
11604;SDS011;5858;43.076;25.626;2024-02-15T11:02:37;9.30;;;6.57;;
11604;SDS011;5858;43.076;25.626;2024-02-15T11:05:08;11.70;;;5.93;;
11604;SDS011;5858;43.076;25.626;2024-02-15T11:07:38;9.23;;;6.27;;
11604;SDS011;5858;43.076;25.626;2024-02-15T11:10:06;11.37;;;8.33;;
11604;SDS011;5858;43.076;25.626;2024-02-15T11:12:35;11.17;;;6.90;;
11604;SDS011;5858;43.076;25.626;2024-02-15T11:15:12;7.30;;;6.07;;
11604;SDS011;5858;43.076;25.626;2024-02-15T11:41:11;10.57;;;5.93;;
11604;SDS011;5858;43.076;25.626;2024-02-15T11:43:51;7.73;;;6.40;;
11604;SDS011;5858;43.076;25.626;2024-02-15T11:46:24;9.50;;;6.37;;
11604;SDS011;5858;43.076;25.626;2024-02-15T11:48:55;10.37;;;7.17;;
11604;SDS011;5858;43.076;25.626;2024-02-15T11:51:24;8.70;;;6.33;;
11604;SDS011;5858;43.076;25.626;2024-02-15T11:53:59;8.83;;;5.77;;
11604;SDS011;5858;43.076;25.626;2024-02-15T11:56:54;11.43;;;6.10;;
11604;SDS011;5858;43.076;25.626;2024-02-15T11:59:41;7.37;;;5.93;;
11604;SDS011;5858;43.076;25.626;2024-02-15T12:02:59;7.67;;;5.10;;
11604;SDS011;5858;43.076;25.626;2024-02-15T12:05:44;9.80;;;6.50;;
11604;SDS011;5858;43.076;25.626;2024-02-15T12:08:32;9.03;;;6.00;;
11604;SDS011;5858;43.076;25.626;2024-02-15T12:11:19;9.70;;;6.03;;
11604;SDS011;5858;43.076;25.626;2024-02-15T12:14:06;9.40;;;5.83;;
11604;SDS011;5858;43.076;25.626;2024-02-15T12:17:02;6.13;;;5.53;;
11604;SDS011;5858;43.076;25.626;2024-02-15T12:19:53;9.53;;;6.07;;
11604;SDS011;5858;43.076;25.626;2024-02-15T12:22:22;9.10;;;6.63;;
11604;SDS011;5858;43.076;25.626;2024-02-15T12:25:14;8.63;;;6.10;;
11604;SDS011;5858;43.076;25.626;2024-02-15T12:27:52;8.50;;;6.40;;
11604;SDS011;5858;43.076;25.626;2024-02-15T12:30:21;10.57;;;7.13;;
11604;SDS011;5858;43.076;25.626;2024-02-15T12:32:50;10.13;;;6.33;;
11604;SDS011;5858;43.076;25.626;2024-02-15T12:35:19;12.10;;;7.03;;
11604;SDS011;5858;43.076;25.626;2024-02-15T12:38:00;9.97;;;6.37;;
11604;SDS011;5858;43.076;25.626;2024-02-15T12:40:35;6.80;;;5.87;;
11604;SDS011;5858;43.076;25.626;2024-02-15T12:43:04;7.63;;;5.67;;
11604;SDS011;5858;43.076;25.626;2024-02-15T12:45:36;8.17;;;6.03;;
11604;SDS011;5858;43.076;25.626;2024-02-15T12:48:07;6.80;;;5.93;;
11604;SDS011;5858;43.076;25.626;2024-02-15T12:50:35;8.33;;;5.50;;
11604;SDS011;5858;43.076;25.626;2024-02-15T12:53:03;7.57;;;6.17;;
11604;SDS011;5858;43.076;25.626;2024-02-15T12:55:36;9.07;;;6.47;;
11604;SDS011;5858;43.076;25.626;2024-02-15T12:58:05;8.07;;;6.17;;
11604;SDS011;5858;43.076;25.626;2024-02-15T13:00:33;8.13;;;6.70;;
11604;SDS011;5858;43.076;25.626;2024-02-15T13:03:06;7.00;;;6.13;;
11604;SDS011;5858;43.076;25.626;2024-02-15T13:05:35;7.43;;;6.07;;
11604;SDS011;5858;43.076;25.626;2024-02-15T13:08:02;8.60;;;6.77;;
11604;SDS011;5858;43.076;25.626;2024-02-15T13:10:35;9.77;;;6.70;;
11604;SDS011;5858;43.076;25.626;2024-02-15T13:13:04;7.87;;;6.67;;
11604;SDS011;5858;43.076;25.626;2024-02-15T13:15:41;9.20;;;6.40;;
11604;SDS011;5858;43.076;25.626;2024-02-15T13:18:10;7.63;;;6.80;;
11604;SDS011;5858;43.076;25.626;2024-02-15T13:20:41;10.67;;;6.47;;
11604;SDS011;5858;43.076;25.626;2024-02-15T13:23:09;8.17;;;6.60;;
11604;SDS011;5858;43.076;25.626;2024-02-15T13:25:40;9.37;;;6.53;;
11604;SDS011;5858;43.076;25.626;2024-02-15T13:28:11;11.37;;;6.80;;
11604;SDS011;5858;43.076;25.626;2024-02-15T13:30:40;8.83;;;6.90;;
11604;SDS011;5858;43.076;25.626;2024-02-15T13:33:08;9.13;;;6.63;;
11604;SDS011;5858;43.076;25.626;2024-02-15T13:35:49;9.40;;;6.97;;
11604;SDS011;5858;43.076;25.626;2024-02-15T13:38:16;11.67;;;7.90;;
11604;SDS011;5858;43.076;25.626;2024-02-15T13:40:51;9.73;;;7.17;;
11604;SDS011;5858;43.076;25.626;2024-02-15T13:43:22;8.93;;;6.60;;
11604;SDS011;5858;43.076;25.626;2024-02-15T13:45:49;9.40;;;6.60;;
11604;SDS011;5858;43.076;25.626;2024-02-15T13:48:23;9.63;;;6.90;;
11604;SDS011;5858;43.076;25.626;2024-02-15T13:50:53;9.03;;;6.60;;
11604;SDS011;5858;43.076;25.626;2024-02-15T13:53:23;6.80;;;5.87;;
11604;SDS011;5858;43.076;25.626;2024-02-15T13:55:50;14.90;;;6.90;;
11604;SDS011;5858;43.076;25.626;2024-02-15T13:58:18;10.50;;;6.80;;
11604;SDS011;5858;43.076;25.626;2024-02-15T14:00:45;8.37;;;6.37;;
11604;SDS011;5858;43.076;25.626;2024-02-15T14:03:13;10.10;;;7.10;;
11604;SDS011;5858;43.076;25.626;2024-02-15T14:05:46;9.70;;;7.00;;
11604;SDS011;5858;43.076;25.626;2024-02-15T14:08:16;11.37;;;8.47;;
11604;SDS011;5858;43.076;25.626;2024-02-15T14:10:45;14.77;;;8.83;;
11604;SDS011;5858;43.076;25.626;2024-02-15T14:13:28;14.13;;;8.90;;
11604;SDS011;5858;43.076;25.626;2024-02-15T14:16:01;12.23;;;8.27;;
11604;SDS011;5858;43.076;25.626;2024-02-15T14:18:29;9.77;;;8.30;;
11604;SDS011;5858;43.076;25.626;2024-02-15T14:21:01;12.27;;;7.73;;
11604;SDS011;5858;43.076;25.626;2024-02-15T14:23:44;7.80;;;7.00;;
11604;SDS011;5858;43.076;25.626;2024-02-15T14:26:21;9.83;;;8.10;;
11604;SDS011;5858;43.076;25.626;2024-02-15T14:28:52;12.33;;;8.20;;
11604;SDS011;5858;43.076;25.626;2024-02-15T14:31:28;11.43;;;8.50;;
11604;SDS011;5858;43.076;25.626;2024-02-15T14:34:12;10.83;;;7.47;;
11604;SDS011;5858;43.076;25.626;2024-02-15T14:36:42;12.43;;;7.80;;
11604;SDS011;5858;43.076;25.626;2024-02-15T14:39:09;12.00;;;8.37;;
11604;SDS011;5858;43.076;25.626;2024-02-15T14:41:42;10.63;;;8.13;;
11604;SDS011;5858;43.076;25.626;2024-02-15T14:44:19;10.57;;;8.20;;
11604;SDS011;5858;43.076;25.626;2024-02-15T14:47:03;10.60;;;7.87;;
11604;SDS011;5858;43.076;25.626;2024-02-15T14:49:39;11.20;;;8.30;;
11604;SDS011;5858;43.076;25.626;2024-02-15T14:52:20;12.67;;;9.77;;
11604;SDS011;5858;43.076;25.626;2024-02-15T14:54:47;14.63;;;9.27;;
11604;SDS011;5858;43.076;25.626;2024-02-15T15:03:31;13.87;;;10.70;;
11604;SDS011;5858;43.076;25.626;2024-02-15T15:04:22;14.37;;;8.70;;
11604;SDS011;5858;43.076;25.626;2024-02-15T15:06:57;16.90;;;10.03;;
11604;SDS011;5858;43.076;25.626;2024-02-15T15:09:44;15.40;;;10.20;;
11604;SDS011;5858;43.076;25.626;2024-02-15T15:12:34;11.37;;;9.03;;
11604;SDS011;5858;43.076;25.626;2024-02-15T15:15:43;13.17;;;9.07;;
11604;SDS011;5858;43.076;25.626;2024-02-15T15:18:14;16.37;;;9.50;;
11604;SDS011;5858;43.076;25.626;2024-02-15T15:20:45;21.70;;;9.57;;
11604;SDS011;5858;43.076;25.626;2024-02-15T15:23:12;10.43;;;8.17;;
11604;SDS011;5858;43.076;25.626;2024-02-15T15:25:48;10.77;;;8.80;;
11604;SDS011;5858;43.076;25.626;2024-02-15T15:28:16;14.00;;;9.40;;
11604;SDS011;5858;43.076;25.626;2024-02-15T15:30:57;14.87;;;9.13;;
11604;SDS011;5858;43.076;25.626;2024-02-15T15:33:48;12.97;;;9.67;;
11604;SDS011;5858;43.076;25.626;2024-02-15T15:36:39;14.90;;;11.23;;
11604;SDS011;5858;43.076;25.626;2024-02-15T15:39:38;17.03;;;11.93;;
11604;SDS011;5858;43.076;25.626;2024-02-15T16:04:51;16.97;;;12.23;;
11604;SDS011;5858;43.076;25.626;2024-02-15T16:07:21;19.07;;;13.80;;
11604;SDS011;5858;43.076;25.626;2024-02-15T16:10:05;15.83;;;11.97;;
11604;SDS011;5858;43.076;25.626;2024-02-15T17:31:25;27.37;;;16.87;;
11604;SDS011;5858;43.076;25.626;2024-02-15T17:35:33;20.60;;;15.53;;
11604;SDS011;5858;43.076;25.626;2024-02-15T18:23:08;59.37;;;39.17;;
11604;SDS011;5858;43.076;25.626;2024-02-15T18:59:12;18.00;;;14.63;;
11604;SDS011;5858;43.076;25.626;2024-02-15T19:02:06;20.77;;;14.43;;
11604;SDS011;5858;43.076;25.626;2024-02-15T19:04:50;20.40;;;14.63;;
11604;SDS011;5858;43.076;25.626;2024-02-15T19:07:25;21.73;;;14.67;;
11604;SDS011;5858;43.076;25.626;2024-02-15T19:13:07;19.80;;;15.77;;
11604;SDS011;5858;43.076;25.626;2024-02-15T19:15:45;24.20;;;15.93;;
11604;SDS011;5858;43.076;25.626;2024-02-15T19:19:36;19.90;;;15.50;;
11604;SDS011;5858;43.076;25.626;2024-02-15T19:22:00;23.43;;;15.90;;
11604;SDS011;5858;43.076;25.626;2024-02-15T19:24:46;21.47;;;17.57;;
11604;SDS011;5858;43.076;25.626;2024-02-15T19:31:18;21.33;;;14.93;;
11604;SDS011;5858;43.076;25.626;2024-02-15T19:34:20;20.83;;;16.03;;
11604;SDS011;5858;43.076;25.626;2024-02-15T19:37:21;20.10;;;14.80;;
11604;SDS011;5858;43.076;25.626;2024-02-15T19:47:05;43.40;;;27.03;;
11604;SDS011;5858;43.076;25.626;2024-02-15T19:50:16;29.40;;;19.20;;
11604;SDS011;5858;43.076;25.626;2024-02-15T19:53:17;24.20;;;18.13;;
11604;SDS011;5858;43.076;25.626;2024-02-15T19:56:22;20.50;;;17.33;;
11604;SDS011;5858;43.076;25.626;2024-02-15T19:59:30;24.47;;;17.30;;
11604;SDS011;5858;43.076;25.626;2024-02-15T20:02:22;27.03;;;17.40;;
11604;SDS011;5858;43.076;25.626;2024-02-15T20:05:39;26.63;;;18.30;;
11604;SDS011;5858;43.076;25.626;2024-02-15T20:09:33;20.83;;;14.93;;
11604;SDS011;5858;43.076;25.626;2024-02-15T20:12:25;17.93;;;14.10;;
11604;SDS011;5858;43.076;25.626;2024-02-15T20:15:05;17.83;;;12.67;;
11604;SDS011;5858;43.076;25.626;2024-02-15T20:17:38;16.60;;;12.60;;
11604;SDS011;5858;43.076;25.626;2024-02-15T20:20:22;19.17;;;15.27;;
11604;SDS011;5858;43.076;25.626;2024-02-15T20:23:14;21.87;;;16.33;;
11604;SDS011;5858;43.076;25.626;2024-02-15T20:25:52;17.13;;;15.07;;
11604;SDS011;5858;43.076;25.626;2024-02-15T20:28:27;19.43;;;14.47;;
11604;SDS011;5858;43.076;25.626;2024-02-15T20:31:14;22.17;;;15.37;;
11604;SDS011;5858;43.076;25.626;2024-02-15T20:33:57;19.20;;;14.30;;
11604;SDS011;5858;43.076;25.626;2024-02-15T20:36:33;17.47;;;13.67;;
11604;SDS011;5858;43.076;25.626;2024-02-15T20:39:15;17.63;;;12.80;;
11604;SDS011;5858;43.076;25.626;2024-02-15T20:41:47;16.60;;;12.47;;
11604;SDS011;5858;43.076;25.626;2024-02-15T20:44:18;16.57;;;13.03;;
11604;SDS011;5858;43.076;25.626;2024-02-15T20:46:49;16.80;;;13.67;;
11604;SDS011;5858;43.076;25.626;2024-02-15T20:49:21;16.90;;;12.87;;
11604;SDS011;5858;43.076;25.626;2024-02-15T20:51:59;15.80;;;13.33;;
11604;SDS011;5858;43.076;25.626;2024-02-15T20:54:36;18.13;;;13.17;;
11604;SDS011;5858;43.076;25.626;2024-02-15T20:57:07;20.53;;;13.90;;
11604;SDS011;5858;43.076;25.626;2024-02-15T21:00:31;21.40;;;14.27;;
11604;SDS011;5858;43.076;25.626;2024-02-15T21:02:59;17.47;;;13.07;;
11604;SDS011;5858;43.076;25.626;2024-02-15T21:09:34;16.43;;;14.10;;
11604;SDS011;5858;43.076;25.626;2024-02-15T21:12:40;16.87;;;13.97;;
11604;SDS011;5858;43.076;25.626;2024-02-15T21:16:20;17.60;;;13.87;;
11604;SDS011;5858;43.076;25.626;2024-02-15T21:33:07;19.90;;;15.27;;
11604;SDS011;5858;43.076;25.626;2024-02-15T21:42:27;22.37;;;15.33;;
11604;SDS011;5858;43.076;25.626;2024-02-15T21:45:35;17.83;;;14.37;;
11604;SDS011;5858;43.076;25.626;2024-02-15T21:51:58;22.93;;;15.83;;
11604;SDS011;5858;43.076;25.626;2024-02-15T21:55:33;21.67;;;15.20;;
11604;SDS011;5858;43.076;25.626;2024-02-15T22:05:32;30.53;;;18.03;;
11604;SDS011;5858;43.076;25.626;2024-02-15T22:15:48;23.53;;;19.77;;
11604;SDS011;5858;43.076;25.626;2024-02-15T22:18:47;21.80;;;15.93;;
11604;SDS011;5858;43.076;25.626;2024-02-15T22:28:46;17.93;;;14.20;;
11604;SDS011;5858;43.076;25.626;2024-02-15T22:39:13;19.80;;;14.00;;
11604;SDS011;5858;43.076;25.626;2024-02-15T22:48:07;20.80;;;14.93;;
11604;SDS011;5858;43.076;25.626;2024-02-15T22:49:47;21.53;;;14.20;;
11604;SDS011;5858;43.076;25.626;2024-02-15T23:03:43;29.67;;;21.50;;
11604;SDS011;5858;43.076;25.626;2024-02-15T23:10:05;20.57;;;16.00;;
11604;SDS011;5858;43.076;25.626;2024-02-15T23:40:46;19.53;;;14.83;;
11604;SDS011;5858;43.076;25.626;2024-02-15T23:53:50;18.83;;;13.40;;
